sensor_id;sensor_type;location;lat;lon;timestamp;P1;durP1;ratioP1;P2;durP2;ratioP2
54368;SDS011;40266;52.434;17.056;2023-06-26T00:00:09;14.90;;;9.00;;
54368;SDS011;40266;52.434;17.056;2023-06-26T00:03:13;14.20;;;8.80;;
54368;SDS011;40266;52.434;17.056;2023-06-26T00:05:58;14.70;;;8.90;;
54368;SDS011;40266;52.434;17.056;2023-06-26T00:08:43;16.60;;;9.10;;
54368;SDS011;40266;52.434;17.056;2023-06-26T00:11:26;15.90;;;9.20;;
54368;SDS011;40266;52.434;17.056;2023-06-26T00:14:10;16.30;;;10.10;;
54368;SDS011;40266;52.434;17.056;2023-06-26T00:16:53;15.10;;;8.80;;
54368;SDS011;40266;52.434;17.056;2023-06-26T00:19:36;18.60;;;9.80;;
54368;SDS011;40266;52.434;17.056;2023-06-26T00:22:20;15.80;;;9.00;;
54368;SDS011;40266;52.434;17.056;2023-06-26T00:25:04;16.40;;;9.40;;
54368;SDS011;40266;52.434;17.056;2023-06-26T00:27:48;17.20;;;10.50;;
54368;SDS011;40266;52.434;17.056;2023-06-26T00:30:31;19.80;;;9.50;;
54368;SDS011;40266;52.434;17.056;2023-06-26T00:33:14;16.80;;;9.90;;
54368;SDS011;40266;52.434;17.056;2023-06-26T00:35:59;14.20;;;9.30;;
54368;SDS011;40266;52.434;17.056;2023-06-26T00:38:42;16.20;;;8.90;;
54368;SDS011;40266;52.434;17.056;2023-06-26T00:41:29;16.20;;;9.80;;
54368;SDS011;40266;52.434;17.056;2023-06-26T00:44:12;14.80;;;8.70;;
54368;SDS011;40266;52.434;17.056;2023-06-26T00:46:55;17.40;;;10.20;;
54368;SDS011;40266;52.434;17.056;2023-06-26T00:49:39;14.10;;;9.30;;
54368;SDS011;40266;52.434;17.056;2023-06-26T00:52:25;15.50;;;9.20;;
54368;SDS011;40266;52.434;17.056;2023-06-26T00:55:08;16.50;;;8.60;;
54368;SDS011;40266;52.434;17.056;2023-06-26T00:57:52;17.70;;;9.60;;
54368;SDS011;40266;52.434;17.056;2023-06-26T01:00:37;13.60;;;8.30;;
54368;SDS011;40266;52.434;17.056;2023-06-26T01:03:24;14.80;;;8.70;;
54368;SDS011;40266;52.434;17.056;2023-06-26T01:06:11;14.70;;;8.80;;
54368;SDS011;40266;52.434;17.056;2023-06-26T01:08:57;16.40;;;8.50;;
54368;SDS011;40266;52.434;17.056;2023-06-26T01:11:42;18.30;;;8.70;;
54368;SDS011;40266;52.434;17.056;2023-06-26T01:14:25;16.60;;;8.90;;
54368;SDS011;40266;52.434;17.056;2023-06-26T01:17:09;15.50;;;9.30;;
54368;SDS011;40266;52.434;17.056;2023-06-26T01:20:00;13.90;;;8.50;;
54368;SDS011;40266;52.434;17.056;2023-06-26T01:29:06;13.80;;;8.60;;
54368;SDS011;40266;52.434;17.056;2023-06-26T01:31:53;14.10;;;7.70;;
54368;SDS011;40266;52.434;17.056;2023-06-26T01:34:36;15.40;;;7.90;;
54368;SDS011;40266;52.434;17.056;2023-06-26T01:37:20;16.20;;;7.90;;
54368;SDS011;40266;52.434;17.056;2023-06-26T01:40:06;13.70;;;7.70;;
54368;SDS011;40266;52.434;17.056;2023-06-26T01:46:25;12.70;;;7.60;;
54368;SDS011;40266;52.434;17.056;2023-06-26T01:52:27;19.10;;;8.10;;
54368;SDS011;40266;52.434;17.056;2023-06-26T01:55:20;16.20;;;9.20;;
54368;SDS011;40266;52.434;17.056;2023-06-26T01:58:08;15.80;;;7.50;;
54368;SDS011;40266;52.434;17.056;2023-06-26T02:00:56;17.80;;;8.30;;
54368;SDS011;40266;52.434;17.056;2023-06-26T02:03:40;14.00;;;7.40;;
54368;SDS011;40266;52.434;17.056;2023-06-26T02:06:23;16.20;;;8.10;;
54368;SDS011;40266;52.434;17.056;2023-06-26T02:09:14;13.60;;;7.70;;
54368;SDS011;40266;52.434;17.056;2023-06-26T02:12:00;12.20;;;7.40;;
54368;SDS011;40266;52.434;17.056;2023-06-26T02:14:43;11.40;;;7.40;;
54368;SDS011;40266;52.434;17.056;2023-06-26T02:17:26;14.20;;;8.10;;
54368;SDS011;40266;52.434;17.056;2023-06-26T02:20:10;17.20;;;7.70;;
54368;SDS011;40266;52.434;17.056;2023-06-26T02:22:53;14.40;;;7.90;;
54368;SDS011;40266;52.434;17.056;2023-06-26T02:25:36;15.80;;;8.60;;
54368;SDS011;40266;52.434;17.056;2023-06-26T02:28:20;14.70;;;7.50;;
54368;SDS011;40266;52.434;17.056;2023-06-26T02:31:03;14.10;;;8.20;;
54368;SDS011;40266;52.434;17.056;2023-06-26T02:33:48;14.60;;;8.10;;
54368;SDS011;40266;52.434;17.056;2023-06-26T02:36:34;15.90;;;8.70;;
54368;SDS011;40266;52.434;17.056;2023-06-26T02:39:20;14.20;;;8.30;;
54368;SDS011;40266;52.434;17.056;2023-06-26T02:42:04;15.10;;;8.60;;
54368;SDS011;40266;52.434;17.056;2023-06-26T02:44:47;17.60;;;8.40;;
54368;SDS011;40266;52.434;17.056;2023-06-26T02:47:31;14.20;;;8.60;;
54368;SDS011;40266;52.434;17.056;2023-06-26T02:50:14;16.40;;;8.10;;
54368;SDS011;40266;52.434;17.056;2023-06-26T02:53:14;13.70;;;8.40;;
54368;SDS011;40266;52.434;17.056;2023-06-26T02:56:00;17.70;;;9.20;;
54368;SDS011;40266;52.434;17.056;2023-06-26T02:58:46;16.10;;;9.20;;
54368;SDS011;40266;52.434;17.056;2023-06-26T03:01:29;16.10;;;9.30;;
54368;SDS011;40266;52.434;17.056;2023-06-26T03:04:12;16.30;;;9.00;;
54368;SDS011;40266;52.434;17.056;2023-06-26T03:06:58;17.40;;;9.10;;
54368;SDS011;40266;52.434;17.056;2023-06-26T03:09:42;14.20;;;9.00;;
54368;SDS011;40266;52.434;17.056;2023-06-26T03:12:25;19.00;;;9.70;;
54368;SDS011;40266;52.434;17.056;2023-06-26T03:15:08;16.20;;;9.00;;
54368;SDS011;40266;52.434;17.056;2023-06-26T03:17:52;17.10;;;9.20;;
54368;SDS011;40266;52.434;17.056;2023-06-26T03:20:40;24.80;;;9.40;;
54368;SDS011;40266;52.434;17.056;2023-06-26T03:23:23;15.90;;;8.90;;
54368;SDS011;40266;52.434;17.056;2023-06-26T03:26:07;17.30;;;8.90;;
54368;SDS011;40266;52.434;17.056;2023-06-26T03:28:53;18.40;;;10.00;;
54368;SDS011;40266;52.434;17.056;2023-06-26T03:31:36;15.30;;;8.10;;
54368;SDS011;40266;52.434;17.056;2023-06-26T03:34:22;17.80;;;8.70;;
54368;SDS011;40266;52.434;17.056;2023-06-26T03:37:06;17.70;;;8.10;;
54368;SDS011;40266;52.434;17.056;2023-06-26T03:39:49;16.20;;;7.90;;
54368;SDS011;40266;52.434;17.056;2023-06-26T03:42:33;14.70;;;8.10;;
54368;SDS011;40266;52.434;17.056;2023-06-26T03:45:16;13.20;;;8.20;;
54368;SDS011;40266;52.434;17.056;2023-06-26T03:48:02;18.70;;;11.10;;
54368;SDS011;40266;52.434;17.056;2023-06-26T03:50:46;16.60;;;8.80;;
54368;SDS011;40266;52.434;17.056;2023-06-26T03:53:31;19.00;;;9.20;;
54368;SDS011;40266;52.434;17.056;2023-06-26T03:56:14;20.50;;;8.20;;
54368;SDS011;40266;52.434;17.056;2023-06-26T03:58:58;18.00;;;8.90;;
54368;SDS011;40266;52.434;17.056;2023-06-26T04:01:42;16.20;;;8.30;;
54368;SDS011;40266;52.434;17.056;2023-06-26T04:04:26;21.70;;;8.80;;
54368;SDS011;40266;52.434;17.056;2023-06-26T04:07:14;22.90;;;9.90;;
54368;SDS011;40266;52.434;17.056;2023-06-26T04:09:58;15.80;;;8.30;;
54368;SDS011;40266;52.434;17.056;2023-06-26T04:12:42;14.90;;;8.90;;
54368;SDS011;40266;52.434;17.056;2023-06-26T04:15:25;18.90;;;9.60;;
54368;SDS011;40266;52.434;17.056;2023-06-26T04:18:08;16.00;;;8.20;;
54368;SDS011;40266;52.434;17.056;2023-06-26T04:21:05;18.90;;;9.30;;
54368;SDS011;40266;52.434;17.056;2023-06-26T04:23:50;20.90;;;8.30;;
54368;SDS011;40266;52.434;17.056;2023-06-26T04:26:33;16.00;;;9.10;;
54368;SDS011;40266;52.434;17.056;2023-06-26T04:29:17;17.10;;;8.30;;
54368;SDS011;40266;52.434;17.056;2023-06-26T04:32:00;19.60;;;8.80;;
54368;SDS011;40266;52.434;17.056;2023-06-26T04:34:43;17.70;;;8.40;;
54368;SDS011;40266;52.434;17.056;2023-06-26T04:37:27;14.60;;;8.30;;
54368;SDS011;40266;52.434;17.056;2023-06-26T04:40:10;18.10;;;8.60;;
54368;SDS011;40266;52.434;17.056;2023-06-26T04:42:54;14.60;;;8.30;;
54368;SDS011;40266;52.434;17.056;2023-06-26T04:45:37;18.80;;;8.50;;
54368;SDS011;40266;52.434;17.056;2023-06-26T04:48:20;15.00;;;7.70;;
54368;SDS011;40266;52.434;17.056;2023-06-26T04:51:06;16.80;;;7.90;;
54368;SDS011;40266;52.434;17.056;2023-06-26T04:53:49;13.80;;;7.30;;
54368;SDS011;40266;52.434;17.056;2023-06-26T04:56:33;15.90;;;8.10;;
54368;SDS011;40266;52.434;17.056;2023-06-26T04:59:40;13.60;;;7.30;;
54368;SDS011;40266;52.434;17.056;2023-06-26T05:02:22;14.20;;;7.80;;
54368;SDS011;40266;52.434;17.056;2023-06-26T05:05:09;13.30;;;7.00;;
54368;SDS011;40266;52.434;17.056;2023-06-26T05:07:56;14.90;;;7.60;;
54368;SDS011;40266;52.434;17.056;2023-06-26T05:10:39;15.60;;;7.50;;
54368;SDS011;40266;52.434;17.056;2023-06-26T05:13:23;13.80;;;7.40;;
54368;SDS011;40266;52.434;17.056;2023-06-26T05:16:09;20.00;;;7.70;;
54368;SDS011;40266;52.434;17.056;2023-06-26T05:18:52;12.30;;;6.60;;
54368;SDS011;40266;52.434;17.056;2023-06-26T05:21:36;16.40;;;7.10;;
54368;SDS011;40266;52.434;17.056;2023-06-26T05:24:21;18.70;;;7.10;;
54368;SDS011;40266;52.434;17.056;2023-06-26T05:27:06;11.10;;;6.60;;
54368;SDS011;40266;52.434;17.056;2023-06-26T05:29:50;13.10;;;6.90;;
54368;SDS011;40266;52.434;17.056;2023-06-26T05:32:34;15.60;;;7.40;;
54368;SDS011;40266;52.434;17.056;2023-06-26T05:35:22;17.00;;;7.70;;
54368;SDS011;40266;52.434;17.056;2023-06-26T05:38:06;12.10;;;5.80;;
54368;SDS011;40266;52.434;17.056;2023-06-26T05:40:49;10.10;;;6.20;;
54368;SDS011;40266;52.434;17.056;2023-06-26T05:43:32;13.20;;;6.80;;
54368;SDS011;40266;52.434;17.056;2023-06-26T05:46:15;10.70;;;6.00;;
54368;SDS011;40266;52.434;17.056;2023-06-26T05:48:58;11.40;;;6.70;;
54368;SDS011;40266;52.434;17.056;2023-06-26T05:51:41;10.60;;;6.20;;
54368;SDS011;40266;52.434;17.056;2023-06-26T05:54:25;11.50;;;5.90;;
54368;SDS011;40266;52.434;17.056;2023-06-26T05:57:08;15.00;;;6.20;;
54368;SDS011;40266;52.434;17.056;2023-06-26T05:59:52;10.60;;;6.30;;
54368;SDS011;40266;52.434;17.056;2023-06-26T06:02:35;12.10;;;5.90;;
54368;SDS011;40266;52.434;17.056;2023-06-26T06:05:19;8.10;;;5.90;;
54368;SDS011;40266;52.434;17.056;2023-06-26T06:08:05;9.30;;;5.40;;
54368;SDS011;40266;52.434;17.056;2023-06-26T06:10:48;11.40;;;5.80;;
54368;SDS011;40266;52.434;17.056;2023-06-26T06:13:31;10.20;;;6.80;;
54368;SDS011;40266;52.434;17.056;2023-06-26T06:16:14;10.80;;;6.20;;
54368;SDS011;40266;52.434;17.056;2023-06-26T06:18:58;13.00;;;5.90;;
54368;SDS011;40266;52.434;17.056;2023-06-26T06:21:41;14.60;;;6.90;;
54368;SDS011;40266;52.434;17.056;2023-06-26T06:24:25;17.20;;;7.10;;
54368;SDS011;40266;52.434;17.056;2023-06-26T06:27:08;14.50;;;7.90;;
54368;SDS011;40266;52.434;17.056;2023-06-26T06:29:51;10.00;;;6.40;;
54368;SDS011;40266;52.434;17.056;2023-06-26T06:32:34;11.40;;;6.00;;
54368;SDS011;40266;52.434;17.056;2023-06-26T06:35:18;8.70;;;5.90;;
54368;SDS011;40266;52.434;17.056;2023-06-26T06:38:01;8.40;;;5.50;;
54368;SDS011;40266;52.434;17.056;2023-06-26T06:40:44;9.70;;;5.60;;
54368;SDS011;40266;52.434;17.056;2023-06-26T06:43:27;8.20;;;5.30;;
54368;SDS011;40266;52.434;17.056;2023-06-26T06:46:10;10.00;;;6.20;;
54368;SDS011;40266;52.434;17.056;2023-06-26T06:48:53;10.40;;;5.70;;
54368;SDS011;40266;52.434;17.056;2023-06-26T06:51:36;9.40;;;5.40;;
54368;SDS011;40266;52.434;17.056;2023-06-26T06:54:19;10.80;;;5.40;;
54368;SDS011;40266;52.434;17.056;2023-06-26T06:57:02;10.00;;;5.50;;
54368;SDS011;40266;52.434;17.056;2023-06-26T06:59:45;10.20;;;5.40;;
54368;SDS011;40266;52.434;17.056;2023-06-26T07:02:30;7.60;;;4.70;;
54368;SDS011;40266;52.434;17.056;2023-06-26T07:05:13;9.30;;;5.10;;
54368;SDS011;40266;52.434;17.056;2023-06-26T07:07:56;10.60;;;5.80;;
54368;SDS011;40266;52.434;17.056;2023-06-26T07:10:43;11.10;;;5.30;;
54368;SDS011;40266;52.434;17.056;2023-06-26T07:13:27;12.10;;;5.70;;
54368;SDS011;40266;52.434;17.056;2023-06-26T07:16:10;15.80;;;5.00;;
54368;SDS011;40266;52.434;17.056;2023-06-26T07:18:54;11.20;;;4.70;;
54368;SDS011;40266;52.434;17.056;2023-06-26T07:21:38;8.70;;;4.50;;
54368;SDS011;40266;52.434;17.056;2023-06-26T07:24:20;5.00;;;4.00;;
54368;SDS011;40266;52.434;17.056;2023-06-26T07:27:04;8.50;;;4.40;;
54368;SDS011;40266;52.434;17.056;2023-06-26T07:29:49;5.40;;;3.90;;
54368;SDS011;40266;52.434;17.056;2023-06-26T07:32:32;9.50;;;5.00;;
54368;SDS011;40266;52.434;17.056;2023-06-26T07:35:15;10.30;;;4.40;;
54368;SDS011;40266;52.434;17.056;2023-06-26T07:37:59;10.50;;;4.40;;
54368;SDS011;40266;52.434;17.056;2023-06-26T07:40:42;4.00;;;3.40;;
54368;SDS011;40266;52.434;17.056;2023-06-26T07:43:25;9.70;;;4.20;;
54368;SDS011;40266;52.434;17.056;2023-06-26T07:46:08;7.20;;;4.20;;
54368;SDS011;40266;52.434;17.056;2023-06-26T07:48:50;6.60;;;4.10;;
54368;SDS011;40266;52.434;17.056;2023-06-26T07:51:34;7.00;;;4.40;;
54368;SDS011;40266;52.434;17.056;2023-06-26T07:54:17;9.10;;;4.80;;
54368;SDS011;40266;52.434;17.056;2023-06-26T07:57:01;6.00;;;4.30;;
54368;SDS011;40266;52.434;17.056;2023-06-26T07:59:47;10.20;;;4.90;;
54368;SDS011;40266;52.434;17.056;2023-06-26T08:02:30;8.60;;;4.50;;
54368;SDS011;40266;52.434;17.056;2023-06-26T08:05:13;9.20;;;4.90;;
54368;SDS011;40266;52.434;17.056;2023-06-26T08:07:56;7.70;;;4.90;;
54368;SDS011;40266;52.434;17.056;2023-06-26T08:10:39;7.10;;;4.40;;
54368;SDS011;40266;52.434;17.056;2023-06-26T08:13:23;6.80;;;4.60;;
54368;SDS011;40266;52.434;17.056;2023-06-26T08:16:06;9.20;;;4.80;;
54368;SDS011;40266;52.434;17.056;2023-06-26T08:18:49;6.80;;;4.40;;
54368;SDS011;40266;52.434;17.056;2023-06-26T08:21:32;7.10;;;5.20;;
54368;SDS011;40266;52.434;17.056;2023-06-26T08:24:15;9.60;;;4.90;;
54368;SDS011;40266;52.434;17.056;2023-06-26T08:27:01;7.20;;;4.20;;
54368;SDS011;40266;52.434;17.056;2023-06-26T08:29:46;11.50;;;5.10;;
54368;SDS011;40266;52.434;17.056;2023-06-26T08:32:29;9.00;;;4.70;;
54368;SDS011;40266;52.434;17.056;2023-06-26T08:35:12;9.00;;;5.10;;
54368;SDS011;40266;52.434;17.056;2023-06-26T08:37:55;6.00;;;4.70;;
54368;SDS011;40266;52.434;17.056;2023-06-26T08:40:38;10.00;;;4.90;;
54368;SDS011;40266;52.434;17.056;2023-06-26T08:43:21;5.00;;;4.30;;
54368;SDS011;40266;52.434;17.056;2023-06-26T08:46:04;8.00;;;5.10;;
54368;SDS011;40266;52.434;17.056;2023-06-26T08:48:48;7.90;;;4.90;;
54368;SDS011;40266;52.434;17.056;2023-06-26T08:51:37;16.40;;;6.10;;
54368;SDS011;40266;52.434;17.056;2023-06-26T08:54:27;7.20;;;5.20;;
54368;SDS011;40266;52.434;17.056;2023-06-26T08:57:14;6.70;;;4.60;;
54368;SDS011;40266;52.434;17.056;2023-06-26T09:00:01;7.20;;;4.50;;
54368;SDS011;40266;52.434;17.056;2023-06-26T09:02:44;8.80;;;4.40;;
54368;SDS011;40266;52.434;17.056;2023-06-26T09:05:28;8.90;;;5.10;;
54368;SDS011;40266;52.434;17.056;2023-06-26T09:08:11;8.70;;;4.70;;
54368;SDS011;40266;52.434;17.056;2023-06-26T09:10:56;9.00;;;5.90;;
54368;SDS011;40266;52.434;17.056;2023-06-26T09:13:39;8.10;;;4.70;;
54368;SDS011;40266;52.434;17.056;2023-06-26T09:16:24;8.90;;;5.30;;
54368;SDS011;40266;52.434;17.056;2023-06-26T09:19:10;6.60;;;5.00;;
54368;SDS011;40266;52.434;17.056;2023-06-26T09:21:57;16.80;;;6.50;;
54368;SDS011;40266;52.434;17.056;2023-06-26T09:24:43;6.80;;;4.90;;
54368;SDS011;40266;52.434;17.056;2023-06-26T09:27:26;8.20;;;4.70;;
54368;SDS011;40266;52.434;17.056;2023-06-26T09:30:10;13.70;;;5.10;;
54368;SDS011;40266;52.434;17.056;2023-06-26T09:32:53;9.20;;;5.60;;
54368;SDS011;40266;52.434;17.056;2023-06-26T09:35:37;10.70;;;5.20;;
54368;SDS011;40266;52.434;17.056;2023-06-26T09:38:20;6.90;;;5.00;;
54368;SDS011;40266;52.434;17.056;2023-06-26T09:41:04;14.50;;;5.60;;
54368;SDS011;40266;52.434;17.056;2023-06-26T09:43:50;7.50;;;5.20;;
54368;SDS011;40266;52.434;17.056;2023-06-26T09:46:34;8.80;;;4.60;;
54368;SDS011;40266;52.434;17.056;2023-06-26T09:49:17;9.60;;;5.20;;
54368;SDS011;40266;52.434;17.056;2023-06-26T09:52:01;10.20;;;5.30;;
54368;SDS011;40266;52.434;17.056;2023-06-26T09:54:45;8.90;;;4.90;;
54368;SDS011;40266;52.434;17.056;2023-06-26T09:57:29;8.20;;;4.80;;
54368;SDS011;40266;52.434;17.056;2023-06-26T10:00:12;13.40;;;5.90;;
54368;SDS011;40266;52.434;17.056;2023-06-26T10:02:56;6.40;;;4.50;;
54368;SDS011;40266;52.434;17.056;2023-06-26T10:05:40;6.80;;;5.20;;
54368;SDS011;40266;52.434;17.056;2023-06-26T10:08:23;10.00;;;5.40;;
54368;SDS011;40266;52.434;17.056;2023-06-26T10:11:07;8.60;;;4.70;;
54368;SDS011;40266;52.434;17.056;2023-06-26T10:13:55;15.50;;;5.00;;
54368;SDS011;40266;52.434;17.056;2023-06-26T10:16:58;11.50;;;6.20;;
54368;SDS011;40266;52.434;17.056;2023-06-26T10:19:44;9.20;;;5.30;;
54368;SDS011;40266;52.434;17.056;2023-06-26T10:22:29;12.00;;;4.90;;
54368;SDS011;40266;52.434;17.056;2023-06-26T10:25:18;14.50;;;5.80;;
54368;SDS011;40266;52.434;17.056;2023-06-26T10:28:02;14.00;;;5.80;;
54368;SDS011;40266;52.434;17.056;2023-06-26T10:30:47;9.90;;;5.30;;
54368;SDS011;40266;52.434;17.056;2023-06-26T10:33:33;14.20;;;5.60;;
54368;SDS011;40266;52.434;17.056;2023-06-26T10:36:18;12.00;;;5.50;;
54368;SDS011;40266;52.434;17.056;2023-06-26T10:39:04;9.20;;;5.90;;
54368;SDS011;40266;52.434;17.056;2023-06-26T10:41:48;9.70;;;5.50;;
54368;SDS011;40266;52.434;17.056;2023-06-26T10:44:41;12.20;;;5.90;;
54368;SDS011;40266;52.434;17.056;2023-06-26T10:47:29;18.10;;;8.10;;
54368;SDS011;40266;52.434;17.056;2023-06-26T10:56:04;7.70;;;5.20;;
54368;SDS011;40266;52.434;17.056;2023-06-26T10:58:49;7.90;;;5.30;;
54368;SDS011;40266;52.434;17.056;2023-06-26T11:01:32;12.50;;;5.80;;
54368;SDS011;40266;52.434;17.056;2023-06-26T11:04:38;9.00;;;4.70;;
54368;SDS011;40266;52.434;17.056;2023-06-26T11:07:23;10.40;;;5.60;;
54368;SDS011;40266;52.434;17.056;2023-06-26T11:12:50;7.50;;;4.90;;
54368;SDS011;40266;52.434;17.056;2023-06-26T11:15:33;9.70;;;5.60;;
54368;SDS011;40266;52.434;17.056;2023-06-26T11:18:17;9.90;;;5.50;;
54368;SDS011;40266;52.434;17.056;2023-06-26T11:21:05;16.30;;;6.10;;
54368;SDS011;40266;52.434;17.056;2023-06-26T11:23:51;7.50;;;4.70;;
54368;SDS011;40266;52.434;17.056;2023-06-26T11:26:38;7.70;;;5.20;;
54368;SDS011;40266;52.434;17.056;2023-06-26T11:29:22;8.70;;;5.30;;
54368;SDS011;40266;52.434;17.056;2023-06-26T11:32:06;13.00;;;5.30;;
54368;SDS011;40266;52.434;17.056;2023-06-26T11:34:49;9.00;;;5.70;;
54368;SDS011;40266;52.434;17.056;2023-06-26T11:37:32;17.00;;;5.60;;
54368;SDS011;40266;52.434;17.056;2023-06-26T11:40:16;9.00;;;4.90;;
54368;SDS011;40266;52.434;17.056;2023-06-26T11:43:00;7.50;;;5.20;;
54368;SDS011;40266;52.434;17.056;2023-06-26T11:45:45;13.60;;;5.50;;
54368;SDS011;40266;52.434;17.056;2023-06-26T11:48:29;10.00;;;6.20;;
54368;SDS011;40266;52.434;17.056;2023-06-26T11:51:14;8.40;;;5.40;;
54368;SDS011;40266;52.434;17.056;2023-06-26T11:54:00;13.90;;;6.00;;
54368;SDS011;40266;52.434;17.056;2023-06-26T11:56:54;12.50;;;5.70;;
54368;SDS011;40266;52.434;17.056;2023-06-26T11:59:41;10.20;;;5.30;;
54368;SDS011;40266;52.434;17.056;2023-06-26T12:02:24;9.30;;;5.30;;
54368;SDS011;40266;52.434;17.056;2023-06-26T12:05:07;7.80;;;4.70;;
54368;SDS011;40266;52.434;17.056;2023-06-26T12:07:51;9.70;;;5.30;;
54368;SDS011;40266;52.434;17.056;2023-06-26T12:10:35;9.20;;;5.70;;
54368;SDS011;40266;52.434;17.056;2023-06-26T12:13:18;10.00;;;5.30;;
54368;SDS011;40266;52.434;17.056;2023-06-26T12:16:02;9.60;;;5.30;;
54368;SDS011;40266;52.434;17.056;2023-06-26T12:18:45;11.70;;;5.60;;
54368;SDS011;40266;52.434;17.056;2023-06-26T12:21:49;11.20;;;5.40;;
54368;SDS011;40266;52.434;17.056;2023-06-26T12:24:38;9.60;;;5.50;;
54368;SDS011;40266;52.434;17.056;2023-06-26T12:27:22;12.10;;;5.60;;
54368;SDS011;40266;52.434;17.056;2023-06-26T12:30:05;6.90;;;5.40;;
54368;SDS011;40266;52.434;17.056;2023-06-26T12:32:53;7.70;;;5.10;;
54368;SDS011;40266;52.434;17.056;2023-06-26T12:35:36;6.90;;;4.80;;
54368;SDS011;40266;52.434;17.056;2023-06-26T12:38:19;11.60;;;5.20;;
54368;SDS011;40266;52.434;17.056;2023-06-26T12:41:03;10.10;;;5.30;;
54368;SDS011;40266;52.434;17.056;2023-06-26T12:43:46;11.30;;;4.60;;
54368;SDS011;40266;52.434;17.056;2023-06-26T12:46:35;11.20;;;4.60;;
54368;SDS011;40266;52.434;17.056;2023-06-26T12:49:19;7.50;;;4.80;;
54368;SDS011;40266;52.434;17.056;2023-06-26T12:52:13;9.40;;;4.50;;
54368;SDS011;40266;52.434;17.056;2023-06-26T12:54:57;6.00;;;4.30;;
54368;SDS011;40266;52.434;17.056;2023-06-26T12:57:40;12.00;;;5.90;;
54368;SDS011;40266;52.434;17.056;2023-06-26T13:00:23;30.20;;;12.40;;
54368;SDS011;40266;52.434;17.056;2023-06-26T13:03:08;8.80;;;5.10;;
54368;SDS011;40266;52.434;17.056;2023-06-26T13:05:54;14.30;;;5.30;;
54368;SDS011;40266;52.434;17.056;2023-06-26T13:08:37;9.50;;;5.80;;
54368;SDS011;40266;52.434;17.056;2023-06-26T13:11:20;10.50;;;4.90;;
54368;SDS011;40266;52.434;17.056;2023-06-26T13:14:05;6.60;;;4.60;;
54368;SDS011;40266;52.434;17.056;2023-06-26T13:16:53;11.60;;;5.20;;
54368;SDS011;40266;52.434;17.056;2023-06-26T13:19:36;9.50;;;4.70;;
54368;SDS011;40266;52.434;17.056;2023-06-26T13:22:19;6.90;;;4.20;;
54368;SDS011;40266;52.434;17.056;2023-06-26T13:25:03;15.10;;;5.60;;
54368;SDS011;40266;52.434;17.056;2023-06-26T13:27:46;9.30;;;4.70;;
54368;SDS011;40266;52.434;17.056;2023-06-26T13:30:30;12.60;;;5.20;;
54368;SDS011;40266;52.434;17.056;2023-06-26T13:33:13;7.90;;;4.70;;
54368;SDS011;40266;52.434;17.056;2023-06-26T13:35:56;7.20;;;4.30;;
54368;SDS011;40266;52.434;17.056;2023-06-26T13:38:40;7.50;;;5.20;;
54368;SDS011;40266;52.434;17.056;2023-06-26T13:41:24;14.20;;;6.00;;
54368;SDS011;40266;52.434;17.056;2023-06-26T13:44:08;6.20;;;4.90;;
54368;SDS011;40266;52.434;17.056;2023-06-26T13:47:03;11.10;;;5.00;;
54368;SDS011;40266;52.434;17.056;2023-06-26T13:49:47;5.70;;;4.50;;
54368;SDS011;40266;52.434;17.056;2023-06-26T13:52:30;13.00;;;5.30;;
54368;SDS011;40266;52.434;17.056;2023-06-26T13:55:13;8.20;;;5.40;;
54368;SDS011;40266;52.434;17.056;2023-06-26T13:57:56;6.10;;;5.10;;
54368;SDS011;40266;52.434;17.056;2023-06-26T14:00:41;14.10;;;5.30;;
54368;SDS011;40266;52.434;17.056;2023-06-26T14:03:27;11.50;;;5.00;;
54368;SDS011;40266;52.434;17.056;2023-06-26T14:06:12;11.70;;;5.00;;
54368;SDS011;40266;52.434;17.056;2023-06-26T14:08:55;6.70;;;4.30;;
54368;SDS011;40266;52.434;17.056;2023-06-26T14:11:38;8.90;;;4.80;;
54368;SDS011;40266;52.434;17.056;2023-06-26T14:14:22;9.10;;;5.60;;
54368;SDS011;40266;52.434;17.056;2023-06-26T14:17:05;8.80;;;4.50;;
54368;SDS011;40266;52.434;17.056;2023-06-26T14:19:49;7.40;;;4.60;;
54368;SDS011;40266;52.434;17.056;2023-06-26T14:22:32;8.10;;;5.00;;
54368;SDS011;40266;52.434;17.056;2023-06-26T14:25:16;6.00;;;4.60;;
54368;SDS011;40266;52.434;17.056;2023-06-26T14:27:59;7.40;;;5.00;;
54368;SDS011;40266;52.434;17.056;2023-06-26T14:30:42;6.40;;;4.80;;
54368;SDS011;40266;52.434;17.056;2023-06-26T14:33:26;5.90;;;4.50;;
54368;SDS011;40266;52.434;17.056;2023-06-26T14:36:08;7.90;;;4.40;;
54368;SDS011;40266;52.434;17.056;2023-06-26T14:38:51;8.10;;;4.70;;
54368;SDS011;40266;52.434;17.056;2023-06-26T14:41:35;6.70;;;4.90;;
54368;SDS011;40266;52.434;17.056;2023-06-26T14:44:18;9.20;;;5.10;;
54368;SDS011;40266;52.434;17.056;2023-06-26T14:47:02;7.50;;;4.60;;
54368;SDS011;40266;52.434;17.056;2023-06-26T14:49:45;8.00;;;5.10;;
54368;SDS011;40266;52.434;17.056;2023-06-26T14:52:29;7.90;;;5.80;;
54368;SDS011;40266;52.434;17.056;2023-06-26T14:55:12;6.00;;;4.80;;
54368;SDS011;40266;52.434;17.056;2023-06-26T14:57:55;7.20;;;5.20;;
54368;SDS011;40266;52.434;17.056;2023-06-26T15:00:40;6.70;;;4.50;;
54368;SDS011;40266;52.434;17.056;2023-06-26T15:03:23;5.00;;;4.10;;
54368;SDS011;40266;52.434;17.056;2023-06-26T15:06:06;6.80;;;4.90;;
54368;SDS011;40266;52.434;17.056;2023-06-26T15:08:49;7.00;;;5.20;;
54368;SDS011;40266;52.434;17.056;2023-06-26T15:11:32;6.00;;;4.30;;
54368;SDS011;40266;52.434;17.056;2023-06-26T15:14:17;10.90;;;5.40;;
54368;SDS011;40266;52.434;17.056;2023-06-26T15:17:00;11.70;;;4.70;;
54368;SDS011;40266;52.434;17.056;2023-06-26T15:19:42;30.40;;;6.10;;
54368;SDS011;40266;52.434;17.056;2023-06-26T15:22:26;11.00;;;4.90;;
54368;SDS011;40266;52.434;17.056;2023-06-26T15:25:09;12.50;;;4.70;;
54368;SDS011;40266;52.434;17.056;2023-06-26T15:27:53;11.60;;;5.20;;
54368;SDS011;40266;52.434;17.056;2023-06-26T15:30:36;12.90;;;6.20;;
54368;SDS011;40266;52.434;17.056;2023-06-26T15:33:20;26.40;;;7.00;;
54368;SDS011;40266;52.434;17.056;2023-06-26T15:36:04;11.00;;;4.70;;
54368;SDS011;40266;52.434;17.056;2023-06-26T15:38:47;8.70;;;5.20;;
54368;SDS011;40266;52.434;17.056;2023-06-26T15:41:30;6.00;;;5.10;;
54368;SDS011;40266;52.434;17.056;2023-06-26T15:44:13;9.20;;;5.30;;
54368;SDS011;40266;52.434;17.056;2023-06-26T15:46:56;9.80;;;5.10;;
54368;SDS011;40266;52.434;17.056;2023-06-26T15:49:39;9.50;;;5.00;;
54368;SDS011;40266;52.434;17.056;2023-06-26T15:52:22;9.50;;;5.90;;
54368;SDS011;40266;52.434;17.056;2023-06-26T15:55:05;11.30;;;5.50;;
54368;SDS011;40266;52.434;17.056;2023-06-26T15:57:49;6.70;;;5.10;;
54368;SDS011;40266;52.434;17.056;2023-06-26T16:00:32;17.90;;;5.90;;
54368;SDS011;40266;52.434;17.056;2023-06-26T16:03:15;11.70;;;5.70;;
54368;SDS011;40266;52.434;17.056;2023-06-26T16:05:57;8.30;;;5.30;;
54368;SDS011;40266;52.434;17.056;2023-06-26T16:08:41;10.00;;;5.60;;
54368;SDS011;40266;52.434;17.056;2023-06-26T16:11:24;7.30;;;5.50;;
54368;SDS011;40266;52.434;17.056;2023-06-26T16:14:07;9.70;;;5.10;;
54368;SDS011;40266;52.434;17.056;2023-06-26T16:16:50;8.00;;;5.90;;
54368;SDS011;40266;52.434;17.056;2023-06-26T16:19:33;7.50;;;5.20;;
54368;SDS011;40266;52.434;17.056;2023-06-26T16:22:16;13.80;;;5.70;;
54368;SDS011;40266;52.434;17.056;2023-06-26T16:24:59;12.10;;;5.80;;
54368;SDS011;40266;52.434;17.056;2023-06-26T16:27:42;10.90;;;5.30;;